createdAt,value
2022-08-17T00:00:43.368Z,15.20
2022-08-17T00:03:17.678Z,14.70
2022-08-17T00:05:52.680Z,14.60
2022-08-17T00:08:26.424Z,15.50
2022-08-17T00:10:55.148Z,15.30
2022-08-17T00:13:38.070Z,16.00
2022-08-17T00:16:22.521Z,16.60
2022-08-17T00:19:14.400Z,16.60
2022-08-17T00:22:14.767Z,16.10
2022-08-17T00:24:35.003Z,16.10
2022-08-17T00:27:03.382Z,16.10
2022-08-17T00:29:31.192Z,15.20
2022-08-17T00:31:58.946Z,17.50
2022-08-17T00:34:28.008Z,15.60
2022-08-17T00:36:55.840Z,16.80
2022-08-17T00:39:23.670Z,17.80
2022-08-17T00:41:51.502Z,18.20
2022-08-17T00:44:19.579Z,17.10
2022-08-17T00:46:48.127Z,16.90
2022-08-17T00:49:19.623Z,17.70
2022-08-17T00:52:04.494Z,17.40
2022-08-17T00:54:44.929Z,17.20
2022-08-17T00:57:19.715Z,17.90
2022-08-17T01:00:01.718Z,17.90
2022-08-17T01:02:42.163Z,17.90
2022-08-17T01:05:19.584Z,17.60
2022-08-17T01:07:52.942Z,18.10
2022-08-17T01:11:00.335Z,18.40
2022-08-17T01:13:27.214Z,20.10
2022-08-17T01:16:08.281Z,20.80
2022-08-17T01:18:37.750Z,22.40
2022-08-17T01:21:17.614Z,23.00
2022-08-17T01:23:45.421Z,25.60
2022-08-17T01:26:13.742Z,26.40
2022-08-17T01:28:53.912Z,27.20
2022-08-17T01:31:30.552Z,26.50
2022-08-17T01:34:02.560Z,29.40
2022-08-17T01:36:30.694Z,29.60
2022-08-17T01:39:00.138Z,32.10
2022-08-17T01:41:29.131Z,31.50
2022-08-17T01:44:04.156Z,33.20
2022-08-17T01:46:36.972Z,32.70
2022-08-17T01:49:11.754Z,33.20
2022-08-17T01:51:39.852Z,32.00
2022-08-17T01:54:13.946Z,30.70
2022-08-17T01:56:47.317Z,33.50
2022-08-17T01:59:18.295Z,32.20
2022-08-17T02:01:46.942Z,33.30
2022-08-17T02:04:16.184Z,34.20
2022-08-17T02:06:52.603Z,32.30
2022-08-17T02:09:29.563Z,33.90
2022-08-17T02:12:37.829Z,35.20
2022-08-17T02:14:52.067Z,34.60
2022-08-17T02:17:19.888Z,34.40
2022-08-17T02:19:47.662Z,35.10
2022-08-17T02:22:18.203Z,33.30
2022-08-17T02:25:00.188Z,33.70
2022-08-17T02:27:30.174Z,33.10
2022-08-17T02:29:58.132Z,31.00
2022-08-17T02:32:28.675Z,33.50
2022-08-17T02:34:57.992Z,33.90
2022-08-17T02:37:31.380Z,31.90
2022-08-17T02:40:00.004Z,32.10
2022-08-17T02:42:38.913Z,32.40
2022-08-17T02:45:22.876Z,32.80
2022-08-17T02:47:52.111Z,34.60
2022-08-17T02:50:24.042Z,32.10
2022-08-17T02:53:01.837Z,32.30
2022-08-17T02:55:40.321Z,34.20
2022-08-17T02:58:11.600Z,32.40
2022-08-17T03:03:20.385Z,32.40
2022-08-17T03:05:53.598Z,33.10
2022-08-17T03:08:22.435Z,32.10
2022-08-17T03:10:50.541Z,33.70
2022-08-17T03:13:18.872Z,34.10
2022-08-17T03:15:48.468Z,32.90
2022-08-17T03:18:24.735Z,31.20
2022-08-17T03:20:57.985Z,33.00
2022-08-17T03:23:29.641Z,34.20
2022-08-17T03:25:59.524Z,33.00
2022-08-17T03:28:28.279Z,32.70
2022-08-17T03:30:56.218Z,34.10
2022-08-17T03:33:24.103Z,32.40
2022-08-17T03:35:52.144Z,34.50
2022-08-17T03:38:20.005Z,33.10
2022-08-17T03:40:56.705Z,32.50
2022-08-17T03:43:31.038Z,33.00
2022-08-17T03:46:39.009Z,33.20
2022-08-17T03:49:27.279Z,32.40
2022-08-17T03:52:16.257Z,32.10
2022-08-17T03:55:03.947Z,31.50
2022-08-17T03:57:32.485Z,32.20
2022-08-17T04:00:00.398Z,33.00
2022-08-17T04:02:32.798Z,32.30
2022-08-17T04:05:01.043Z,32.70
2022-08-17T04:07:31.517Z,30.70
2022-08-17T04:10:00.534Z,32.00
2022-08-17T04:12:42.059Z,31.50
2022-08-17T04:15:11.773Z,32.10
2022-08-17T04:17:39.627Z,30.90
2022-08-17T04:20:08.415Z,30.50
2022-08-17T04:22:36.403Z,31.40
2022-08-17T04:25:16.386Z,30.40
2022-08-17T04:27:44.251Z,30.80
2022-08-17T04:30:13.436Z,31.70
2022-08-17T04:33:10.545Z,30.90
2022-08-17T04:36:01.279Z,32.00
2022-08-17T04:38:34.922Z,30.80
2022-08-17T04:41:22.649Z,32.60
2022-08-17T04:43:56.023Z,30.30
2022-08-17T04:46:29.353Z,31.80
2022-08-17T04:48:57.783Z,30.90
2022-08-17T04:51:34.587Z,30.60
2022-08-17T04:54:07.905Z,31.50
2022-08-17T04:56:36.136Z,31.00
2022-08-17T04:59:21.121Z,30.90
2022-08-17T05:01:52.091Z,30.70
2022-08-17T05:04:34.893Z,31.90
2022-08-17T05:07:04.606Z,30.30
2022-08-17T05:09:32.783Z,31.30
2022-08-17T05:12:02.528Z,31.70
2022-08-17T05:14:33.018Z,31.60
2022-08-17T05:17:07.408Z,31.80
2022-08-17T05:19:39.078Z,32.00
2022-08-17T05:22:07.022Z,32.10
2022-08-17T05:24:42.518Z,32.00
2022-08-17T05:27:18.826Z,33.00
2022-08-17T05:29:47.215Z,33.00
2022-08-17T05:32:38.000Z,32.80
2022-08-17T05:35:03.722Z,33.20
2022-08-17T05:37:31.507Z,34.30
2022-08-17T05:39:59.740Z,32.80
2022-08-17T05:42:27.545Z,34.20
2022-08-17T05:44:58.851Z,34.10
2022-08-17T05:47:27.613Z,33.30
2022-08-17T05:49:55.606Z,37.20
2022-08-17T05:53:00.988Z,35.50
2022-08-17T05:55:50.671Z,36.00
2022-08-17T05:58:46.586Z,35.70
2022-08-17T06:01:37.452Z,36.60
2022-08-17T06:04:31.010Z,36.70
2022-08-17T06:07:25.387Z,38.90
2022-08-17T06:10:02.020Z,36.40
2022-08-17T06:12:50.874Z,38.00
2022-08-17T06:15:56.246Z,39.50
2022-08-17T06:18:34.088Z,39.40
2022-08-17T06:21:07.532Z,39.50
2022-08-17T06:23:41.757Z,39.40
2022-08-17T06:26:37.321Z,39.20
2022-08-17T06:29:47.759Z,39.40
2022-08-17T06:32:17.171Z,39.10
2022-08-17T06:34:46.488Z,41.00
2022-08-17T06:37:26.768Z,39.40
2022-08-17T06:40:37.644Z,41.20
2022-08-17T06:43:23.366Z,41.50
2022-08-17T06:46:07.042Z,40.80
2022-08-17T06:48:46.972Z,42.30
2022-08-17T06:51:39.717Z,41.00
2022-08-17T06:54:29.543Z,41.10
2022-08-17T06:57:17.679Z,41.40
2022-08-17T06:59:56.748Z,41.30
2022-08-17T07:02:52.210Z,43.80
2022-08-17T07:06:02.967Z,43.70
2022-08-17T07:08:54.864Z,43.50
2022-08-17T07:12:03.463Z,44.90
2022-08-17T07:14:55.991Z,45.10
2022-08-17T07:17:47.203Z,45.10
2022-08-17T07:20:22.746Z,46.70
2022-08-17T07:23:09.072Z,46.60
2022-08-17T07:25:36.956Z,46.70
2022-08-17T07:28:07.777Z,47.10
2022-08-17T07:30:47.096Z,46.90
2022-08-17T07:33:24.583Z,45.80
2022-08-17T07:35:53.736Z,46.70
2022-08-17T07:38:28.662Z,48.00
2022-08-17T07:41:02.984Z,48.00
2022-08-17T07:43:40.237Z,48.90
2022-08-17T07:46:44.947Z,48.00
2022-08-17T07:49:12.707Z,48.00
2022-08-17T07:51:43.829Z,48.30
2022-08-17T07:57:29.397Z,48.40
2022-08-17T08:00:01.118Z,47.40
2022-08-17T08:02:38.670Z,47.60
2022-08-17T08:05:49.416Z,48.70
2022-08-17T08:08:42.747Z,48.90
2022-08-17T08:11:30.058Z,47.60
2022-08-17T08:14:28.274Z,47.50
2022-08-17T08:17:05.892Z,49.60
2022-08-17T08:19:34.575Z,49.30
2022-08-17T08:22:21.184Z,48.00
2022-08-17T08:25:21.547Z,46.50
2022-08-17T08:28:20.086Z,46.50
2022-08-17T08:30:58.543Z,44.70
2022-08-17T08:33:42.781Z,45.70
2022-08-17T08:37:14.606Z,43.20
2022-08-17T08:40:30.983Z,41.70
2022-08-17T08:43:39.004Z,43.20
2022-08-17T08:46:52.908Z,41.60
2022-08-17T08:50:02.841Z,39.80
2022-08-17T08:53:01.823Z,42.30
2022-08-17T08:58:43.585Z,42.00
2022-08-17T09:01:55.954Z,39.80
2022-08-17T09:05:16.084Z,39.00
2022-08-17T09:08:12.740Z,38.00
2022-08-17T09:11:12.604Z,38.00
2022-08-17T09:14:28.189Z,34.50
2022-08-17T09:17:07.834Z,34.50
2022-08-17T09:19:48.265Z,35.30
2022-08-17T09:23:52.056Z,36.20
2022-08-17T09:26:31.817Z,33.60
2022-08-17T09:29:07.410Z,32.60
2022-08-17T09:31:49.705Z,33.00
2022-08-17T09:34:33.448Z,32.20
2022-08-17T09:37:19.257Z,32.80
2022-08-17T09:40:11.932Z,31.50
2022-08-17T09:42:50.789Z,31.70
2022-08-17T09:45:45.238Z,31.10
2022-08-17T09:48:27.691Z,32.40
2022-08-17T09:51:16.610Z,31.10
2022-08-17T09:53:44.839Z,31.40
2022-08-17T09:57:05.716Z,27.40
2022-08-17T09:59:54.841Z,28.70
2022-08-17T10:02:40.504Z,28.40
2022-08-17T10:05:21.997Z,27.50
2022-08-17T10:08:16.980Z,27.10
2022-08-17T10:11:50.357Z,23.30
2022-08-17T10:14:43.819Z,22.00
2022-08-17T10:17:42.894Z,21.40
2022-08-17T10:20:39.465Z,19.40
2022-08-17T10:23:41.168Z,18.60
2022-08-17T10:26:16.966Z,17.90
2022-08-17T10:29:12.532Z,16.90
2022-08-17T10:31:48.569Z,17.30
2022-08-17T10:34:44.364Z,15.70
2022-08-17T10:37:21.066Z,16.40
2022-08-17T10:40:39.919Z,16.30
2022-08-17T10:43:25.507Z,17.30
2022-08-17T10:46:31.055Z,17.80
2022-08-17T10:49:21.141Z,17.40
2022-08-17T10:51:52.978Z,16.50
2022-08-17T10:55:05.987Z,15.90
2022-08-17T10:57:44.904Z,16.30
2022-08-17T11:00:25.627Z,15.00
2022-08-17T11:02:57.839Z,14.90
2022-08-17T11:05:58.899Z,15.10
2022-08-17T11:08:38.736Z,15.70
2022-08-17T11:11:56.376Z,15.10
2022-08-17T11:14:47.608Z,14.90
2022-08-17T11:17:44.200Z,15.20
2022-08-17T11:20:38.450Z,13.40
2022-08-17T11:23:38.467Z,13.40
2022-08-17T11:26:26.587Z,12.60
2022-08-17T11:29:05.195Z,12.20
2022-08-17T11:31:58.223Z,12.50
2022-08-17T11:34:30.251Z,12.00
2022-08-17T11:37:19.046Z,12.10
2022-08-17T11:40:20.220Z,11.50
2022-08-17T11:46:22.593Z,9.60
2022-08-17T11:49:11.695Z,9.70
2022-08-17T11:52:01.617Z,9.90
2022-08-17T11:54:37.447Z,9.30
2022-08-17T11:57:27.046Z,8.90
2022-08-17T12:00:06.490Z,10.20
2022-08-17T12:02:48.312Z,9.10
2022-08-17T12:05:26.031Z,9.30
2022-08-17T12:08:15.201Z,8.80
2022-08-17T12:11:04.739Z,9.60
2022-08-17T12:13:45.196Z,8.80
2022-08-17T12:16:20.126Z,9.60
2022-08-17T12:19:02.404Z,9.50
2022-08-17T12:21:51.275Z,8.00
2022-08-17T12:24:31.455Z,7.10
2022-08-17T12:27:04.450Z,7.20
2022-08-17T12:29:35.676Z,7.60
2022-08-17T12:32:16.573Z,7.30
2022-08-17T12:34:47.311Z,7.90
2022-08-17T12:37:31.072Z,7.10
2022-08-17T12:40:16.848Z,7.70
2022-08-17T12:42:57.602Z,7.20
2022-08-17T12:45:39.728Z,7.10
2022-08-17T12:48:21.529Z,6.70
2022-08-17T12:50:51.621Z,6.90
2022-08-17T12:53:29.832Z,6.70
2022-08-17T12:56:00.325Z,6.60
2022-08-17T12:58:37.764Z,6.30
2022-08-17T13:01:15.071Z,6.80
2022-08-17T13:03:49.459Z,6.80
2022-08-17T13:06:35.747Z,7.00
2022-08-17T13:09:35.743Z,6.70
2022-08-17T13:12:08.546Z,6.60
2022-08-17T13:14:36.447Z,6.40
2022-08-17T13:17:11.029Z,6.70
2022-08-17T13:19:50.476Z,6.50
2022-08-17T13:22:24.656Z,6.10
2022-08-17T13:24:58.187Z,6.50
2022-08-17T13:27:29.607Z,6.30
2022-08-17T13:30:03.970Z,6.20
2022-08-17T13:32:43.967Z,6.80
2022-08-17T13:35:32.801Z,6.20
2022-08-17T13:38:16.938Z,6.40
2022-08-17T13:40:50.932Z,6.70
2022-08-17T13:43:49.614Z,6.10
2022-08-17T13:46:28.531Z,6.10
2022-08-17T13:49:09.871Z,5.60
2022-08-17T13:51:47.529Z,5.30
2022-08-17T13:54:31.466Z,5.90
2022-08-17T13:57:19.576Z,6.00
2022-08-17T13:59:52.976Z,5.70
2022-08-17T14:02:21.825Z,6.30
2022-08-17T14:04:50.254Z,6.20
2022-08-17T14:07:26.529Z,5.60
2022-08-17T14:10:00.763Z,5.30
2022-08-17T14:12:33.138Z,5.20
2022-08-17T14:15:02.209Z,5.40
2022-08-17T14:17:36.356Z,5.60
2022-08-17T14:20:10.961Z,4.70
2022-08-17T14:22:44.772Z,5.50
2022-08-17T14:25:16.250Z,5.70
2022-08-17T14:27:53.426Z,5.20
2022-08-17T14:30:26.742Z,4.90
2022-08-17T14:32:58.522Z,5.20
2022-08-17T14:35:28.225Z,4.70
2022-08-17T14:37:56.677Z,5.30
2022-08-17T14:40:25.484Z,5.30
2022-08-17T14:42:55.979Z,5.10
2022-08-17T14:45:32.892Z,5.10
2022-08-17T14:48:04.490Z,4.90
2022-08-17T14:50:35.512Z,4.80
2022-08-17T14:53:06.011Z,4.90
2022-08-17T14:55:34.589Z,5.00
2022-08-17T14:58:04.000Z,5.10
2022-08-17T15:00:33.146Z,5.40
2022-08-17T15:03:02.398Z,5.80
2022-08-17T15:05:35.390Z,5.20
2022-08-17T15:08:05.561Z,5.50
2022-08-17T15:10:34.480Z,6.20
2022-08-17T15:13:02.539Z,6.20
2022-08-17T15:15:31.204Z,5.80
2022-08-17T15:17:59.827Z,5.40
2022-08-17T15:20:29.821Z,6.20
2022-08-17T15:22:59.326Z,5.30
2022-08-17T15:25:31.949Z,5.70
2022-08-17T15:28:01.370Z,5.50
2022-08-17T15:30:31.091Z,5.20
2022-08-17T15:33:01.168Z,4.80
2022-08-17T15:35:33.053Z,4.60
2022-08-17T15:38:11.139Z,4.40
2022-08-17T15:40:44.734Z,4.00
2022-08-17T15:43:27.253Z,4.20
2022-08-17T15:46:01.492Z,3.70
2022-08-17T15:48:41.300Z,3.60
2022-08-17T15:51:21.430Z,3.70
2022-08-17T15:54:00.022Z,3.20
2022-08-17T15:56:32.755Z,3.20
2022-08-17T15:59:01.159Z,3.20
2022-08-17T16:02:11.987Z,3.60
2022-08-17T16:04:30.233Z,4.10
2022-08-17T16:07:00.248Z,3.80
2022-08-17T16:09:28.515Z,4.00
2022-08-17T16:11:56.655Z,3.70
2022-08-17T16:14:32.540Z,3.80
2022-08-17T16:17:04.810Z,3.60
2022-08-17T16:19:52.595Z,3.00
2022-08-17T16:22:44.687Z,3.30
2022-08-17T16:25:21.779Z,3.60
2022-08-17T16:27:53.613Z,3.30
2022-08-17T16:30:25.471Z,3.70
2022-08-17T16:32:55.529Z,2.80
2022-08-17T16:35:26.812Z,2.60
2022-08-17T16:37:58.392Z,2.80
2022-08-17T16:40:29.643Z,2.80
2022-08-17T16:43:01.686Z,2.90
2022-08-17T16:45:36.581Z,2.80
2022-08-17T16:48:04.873Z,3.20
2022-08-17T16:50:33.822Z,2.80
2022-08-17T16:53:16.278Z,3.40
2022-08-17T16:55:46.073Z,3.20
2022-08-17T16:58:15.587Z,3.40
2022-08-17T17:00:45.239Z,3.60
2022-08-17T17:03:21.123Z,4.20
2022-08-17T17:06:08.729Z,3.60
2022-08-17T17:09:01.915Z,3.90
2022-08-17T17:11:54.619Z,4.10
2022-08-17T17:14:28.303Z,4.60
2022-08-17T17:17:05.336Z,4.90
2022-08-17T17:20:00.717Z,4.90
2022-08-17T17:22:48.671Z,4.70
2022-08-17T17:25:26.369Z,4.70
2022-08-17T17:28:02.948Z,4.80
2022-08-17T17:30:53.656Z,5.00
2022-08-17T17:33:36.203Z,4.80
2022-08-17T17:36:17.044Z,5.00
2022-08-17T17:38:52.833Z,4.40
2022-08-17T17:41:37.082Z,4.50
2022-08-17T17:44:18.015Z,4.50
2022-08-17T17:46:56.606Z,4.90
2022-08-17T17:49:33.280Z,4.20
2022-08-17T17:52:41.091Z,4.50
2022-08-17T17:55:33.651Z,4.20
2022-08-17T17:58:28.557Z,4.40
2022-08-17T18:01:53.835Z,4.60
2022-08-17T18:04:42.754Z,4.90
2022-08-17T18:07:16.130Z,4.90
2022-08-17T18:10:01.430Z,4.30
2022-08-17T18:12:46.349Z,4.60
2022-08-17T18:15:29.786Z,4.20
2022-08-17T18:18:16.031Z,4.50
2022-08-17T18:20:53.779Z,4.50
2022-08-17T18:23:28.055Z,3.90
2022-08-17T18:25:58.803Z,4.40
2022-08-17T18:28:39.794Z,4.10
2022-08-17T18:31:20.513Z,3.90
2022-08-17T18:33:53.364Z,3.70
2022-08-17T18:36:33.501Z,3.70
2022-08-17T18:39:10.284Z,4.90
2022-08-17T18:41:48.794Z,4.00
2022-08-17T18:44:25.368Z,4.10
2022-08-17T18:47:28.514Z,4.20
2022-08-17T18:50:27.381Z,4.20
2022-08-17T18:53:30.164Z,3.90
2022-08-17T18:56:27.918Z,3.80
2022-08-17T18:59:11.962Z,4.20
2022-08-17T19:02:16.059Z,4.30
2022-08-17T19:05:07.789Z,3.70
2022-08-17T19:07:44.262Z,3.60
2022-08-17T19:10:24.228Z,3.70
2022-08-17T19:13:00.741Z,4.10
2022-08-17T19:16:14.671Z,4.40
2022-08-17T19:19:19.990Z,3.60
2022-08-17T19:21:59.100Z,3.70
2022-08-17T19:24:30.663Z,3.60
2022-08-17T19:27:19.642Z,3.30
2022-08-17T19:30:07.913Z,3.80
2022-08-17T19:32:38.041Z,4.20
2022-08-17T19:35:13.596Z,3.80
2022-08-17T19:38:18.470Z,3.70
2022-08-17T19:41:12.121Z,4.20
2022-08-17T19:43:51.292Z,4.50
2022-08-17T19:47:00.848Z,4.00
2022-08-17T19:49:41.279Z,3.60
2022-08-17T19:52:18.538Z,4.40
2022-08-17T19:55:32.949Z,3.70
2022-08-17T19:58:21.418Z,4.20
2022-08-17T20:00:54.535Z,4.30
2022-08-17T20:03:34.809Z,3.80
2022-08-17T20:06:15.065Z,3.80
2022-08-17T20:09:05.973Z,4.60
2022-08-17T20:11:45.264Z,3.80
2022-08-17T20:14:35.938Z,4.90
2022-08-17T20:17:06.126Z,4.40
2022-08-17T20:19:53.254Z,4.00
2022-08-17T20:22:31.738Z,4.00
2022-08-17T20:25:33.303Z,4.70
2022-08-17T20:28:22.891Z,4.20
2022-08-17T20:30:52.567Z,4.20
2022-08-17T20:33:37.647Z,4.00
2022-08-17T20:36:11.290Z,4.10
2022-08-17T20:38:48.935Z,4.30
2022-08-17T20:41:24.817Z,6.40
2022-08-17T20:43:55.647Z,3.90
2022-08-17T20:46:51.597Z,4.40
2022-08-17T20:49:39.179Z,3.90
2022-08-17T20:52:16.608Z,4.10
2022-08-17T20:54:48.949Z,4.20
2022-08-17T20:57:32.190Z,4.70
2022-08-17T21:00:33.387Z,4.40
2022-08-17T21:03:26.952Z,4.30
2022-08-17T21:06:16.927Z,4.70
2022-08-17T21:08:53.939Z,4.60
2022-08-17T21:11:56.737Z,4.40
2022-08-17T21:14:34.367Z,4.40
2022-08-17T21:17:33.683Z,4.40
2022-08-17T21:20:11.459Z,4.70
2022-08-17T21:23:13.272Z,4.60
2022-08-17T21:25:55.046Z,4.60
2022-08-17T21:28:38.017Z,4.70
2022-08-17T21:32:03.919Z,4.70
2022-08-17T21:35:06.479Z,4.40
2022-08-17T21:37:46.389Z,4.70
2022-08-17T21:40:18.222Z,5.00
2022-08-17T21:42:53.831Z,4.90
2022-08-17T21:45:30.551Z,4.80
2022-08-17T21:48:17.401Z,4.80
2022-08-17T21:51:03.816Z,4.90
2022-08-17T21:53:50.093Z,5.50
2022-08-17T21:56:29.320Z,4.90
2022-08-17T21:59:28.126Z,4.90
2022-08-17T22:02:09.768Z,4.60
2022-08-17T22:04:44.043Z,5.00
2022-08-17T22:07:14.295Z,5.50
2022-08-17T22:09:49.752Z,5.60
2022-08-17T22:12:20.025Z,5.30
2022-08-17T22:15:00.582Z,6.20
2022-08-17T22:17:35.961Z,5.30
2022-08-17T22:20:15.839Z,6.20
2022-08-17T22:23:05.176Z,5.80
2022-08-17T22:25:38.252Z,6.00
2022-08-17T22:28:10.052Z,5.30
2022-08-17T22:30:59.263Z,5.60
2022-08-17T22:33:32.884Z,6.30
2022-08-17T22:36:33.698Z,6.40
2022-08-17T22:39:26.123Z,5.70
2022-08-17T22:41:59.749Z,6.20
2022-08-17T22:44:37.868Z,6.30
2022-08-17T22:47:14.530Z,5.70
2022-08-17T22:50:05.197Z,6.10
2022-08-17T22:53:01.088Z,6.00
2022-08-17T22:55:51.941Z,5.80
2022-08-17T22:58:43.378Z,6.10
2022-08-17T23:01:31.579Z,6.40
2022-08-17T23:04:06.949Z,5.90
2022-08-17T23:06:38.078Z,5.20
2022-08-17T23:11:49.900Z,5.70
2022-08-17T23:14:20.754Z,6.00
2022-08-17T23:16:52.866Z,5.10
2022-08-17T23:19:22.219Z,5.50
2022-08-17T23:21:52.699Z,5.30
2022-08-17T23:24:27.049Z,5.60
2022-08-17T23:26:57.416Z,5.60
2022-08-17T23:29:29.263Z,5.50
2022-08-17T23:32:00.134Z,5.50
2022-08-17T23:34:28.691Z,5.30
2022-08-17T23:36:56.623Z,5.30
2022-08-17T23:39:27.560Z,5.50
2022-08-17T23:42:05.158Z,5.40
2022-08-17T23:44:33.820Z,5.20
2022-08-17T23:47:04.668Z,6.00
2022-08-17T23:49:32.601Z,6.00
2022-08-17T23:52:04.428Z,4.80
2022-08-17T23:54:41.559Z,5.30
2022-08-17T23:57:20.376Z,5.20
